createdAt,value
2018-11-29T00:00:20.984Z,3.90
2018-11-29T00:02:49.787Z,3.90
2018-11-29T00:05:17.846Z,3.90
2018-11-29T00:07:45.854Z,3.90
2018-11-29T00:10:13.891Z,3.90
2018-11-29T00:12:41.904Z,3.90
2018-11-29T00:15:12.064Z,3.90
2018-11-29T00:17:40.059Z,3.90
2018-11-29T00:20:10.278Z,3.90
2018-11-29T00:22:38.282Z,3.90
2018-11-29T00:25:07.770Z,3.90
2018-11-29T00:27:35.801Z,3.90
2018-11-29T00:30:05.741Z,3.90
2018-11-29T00:32:33.774Z,3.90
2018-11-29T00:35:01.771Z,3.90
2018-11-29T00:37:29.784Z,3.90
2018-11-29T00:39:57.765Z,3.80
2018-11-29T00:42:25.762Z,3.80
2018-11-29T00:44:53.770Z,3.90
2018-11-29T00:47:21.802Z,3.90
2018-11-29T00:49:49.783Z,3.90
2018-11-29T00:52:17.751Z,3.90
2018-11-29T00:54:45.743Z,3.90
2018-11-29T00:57:13.698Z,3.90
2018-11-29T00:59:41.681Z,3.80
2018-11-29T01:02:09.650Z,3.80
2018-11-29T01:04:37.638Z,3.90
2018-11-29T01:07:05.659Z,3.90
2018-11-29T01:09:33.716Z,3.90
2018-11-29T01:12:01.791Z,3.90
2018-11-29T01:14:29.796Z,3.90
2018-11-29T01:16:57.795Z,3.90
2018-11-29T01:19:25.786Z,3.90
2018-11-29T01:21:53.753Z,3.90
2018-11-29T01:24:21.739Z,3.90
2018-11-29T01:26:49.710Z,3.90
2018-11-29T01:29:17.691Z,3.90
2018-11-29T01:31:45.735Z,3.80
2018-11-29T01:34:13.769Z,3.80
2018-11-29T01:36:41.758Z,3.80
2018-11-29T01:39:09.900Z,3.90
2018-11-29T01:41:37.868Z,3.80
2018-11-29T01:44:06.447Z,3.80
2018-11-29T01:46:34.411Z,3.90
2018-11-29T01:49:02.392Z,3.80
2018-11-29T01:51:31.063Z,3.80
2018-11-29T01:53:59.935Z,3.80
2018-11-29T01:56:28.024Z,3.90
2018-11-29T01:58:55.979Z,3.80
2018-11-29T02:01:24.056Z,3.80
2018-11-29T02:03:52.010Z,3.80
2018-11-29T02:06:19.993Z,3.80
2018-11-29T02:08:48.671Z,3.80
2018-11-29T02:11:16.639Z,3.80
2018-11-29T02:13:44.642Z,3.90
2018-11-29T02:16:12.668Z,3.90
2018-11-29T02:18:40.621Z,3.90
2018-11-29T02:21:08.647Z,3.80
2018-11-29T02:23:36.720Z,3.80
2018-11-29T02:26:05.070Z,3.90
2018-11-29T02:28:33.047Z,3.90
2018-11-29T02:31:01.058Z,3.90
2018-11-29T02:33:29.095Z,3.90
2018-11-29T02:35:57.076Z,3.90
2018-11-29T02:38:25.058Z,3.90
2018-11-29T02:40:53.830Z,3.90
2018-11-29T02:43:21.837Z,3.90
2018-11-29T02:45:49.820Z,3.90
2018-11-29T02:48:17.803Z,3.90
2018-11-29T02:50:45.775Z,3.90
2018-11-29T02:53:13.751Z,3.80
2018-11-29T02:55:41.731Z,3.80
2018-11-29T02:58:09.736Z,3.90
2018-11-29T03:00:37.732Z,3.80
2018-11-29T03:03:05.904Z,3.90
2018-11-29T03:05:33.988Z,3.90
2018-11-29T03:08:02.015Z,3.90
2018-11-29T03:10:30.012Z,3.90
2018-11-29T03:12:57.979Z,3.90
2018-11-29T03:15:25.955Z,3.90
2018-11-29T03:17:54.663Z,4.00
2018-11-29T03:20:22.634Z,3.90
2018-11-29T03:22:50.611Z,4.00
2018-11-29T03:25:18.608Z,3.90
2018-11-29T03:27:46.602Z,3.90
2018-11-29T03:30:15.643Z,3.90
2018-11-29T03:32:43.697Z,3.90
2018-11-29T03:35:12.470Z,3.90
2018-11-29T03:37:40.634Z,3.90
2018-11-29T03:40:09.939Z,3.90
2018-11-29T03:42:38.488Z,3.90
2018-11-29T03:45:08.247Z,3.90
2018-11-29T03:47:36.753Z,3.90
2018-11-29T03:50:07.233Z,3.90
2018-11-29T03:52:36.003Z,3.90
2018-11-29T03:55:04.651Z,3.80
2018-11-29T03:57:32.896Z,3.80
2018-11-29T04:00:00.929Z,3.80
2018-11-29T04:02:28.895Z,3.80
2018-11-29T04:04:56.878Z,3.80
2018-11-29T04:07:24.955Z,3.80
2018-11-29T04:09:52.938Z,3.70
2018-11-29T04:12:20.924Z,3.80
2018-11-29T04:14:48.903Z,3.80
2018-11-29T04:17:16.932Z,3.80
2018-11-29T04:19:44.987Z,3.80
2018-11-29T04:22:13.067Z,3.90
2018-11-29T04:24:41.095Z,3.80
2018-11-29T04:27:09.287Z,3.90
2018-11-29T04:29:37.294Z,3.90
2018-11-29T04:32:05.887Z,3.90
2018-11-29T04:34:33.874Z,3.90
2018-11-29T04:37:01.876Z,3.90
2018-11-29T04:39:29.836Z,3.90
2018-11-29T04:41:57.865Z,3.90
2018-11-29T04:44:25.847Z,3.90
2018-11-29T04:46:53.875Z,3.90
2018-11-29T04:49:21.870Z,3.90
2018-11-29T04:51:49.860Z,3.90
2018-11-29T04:54:17.828Z,4.00
2018-11-29T04:56:45.879Z,4.00
2018-11-29T04:59:13.862Z,4.00
2018-11-29T05:01:41.850Z,4.00
2018-11-29T05:04:10.229Z,4.00
2018-11-29T05:06:38.264Z,3.90
2018-11-29T05:09:08.671Z,4.00
2018-11-29T05:11:37.065Z,3.90
2018-11-29T05:14:05.323Z,4.00
2018-11-29T05:16:33.344Z,4.00
2018-11-29T05:19:01.331Z,4.10
2018-11-29T05:21:29.309Z,4.00
2018-11-29T05:23:57.288Z,4.10
2018-11-29T05:26:25.295Z,4.00
2018-11-29T05:28:53.271Z,4.00
2018-11-29T05:31:21.299Z,4.00
2018-11-29T05:33:49.275Z,4.00
2018-11-29T05:36:17.770Z,4.10
2018-11-29T05:38:45.819Z,4.10
2018-11-29T05:41:13.825Z,4.10
2018-11-29T05:43:41.960Z,4.20
2018-11-29T05:46:10.066Z,4.10
2018-11-29T05:48:38.054Z,4.20
2018-11-29T05:51:06.094Z,4.20
2018-11-29T05:53:34.068Z,4.20
2018-11-29T05:56:02.080Z,4.20
2018-11-29T05:58:30.067Z,4.20
2018-11-29T06:01:00.428Z,4.20
2018-11-29T06:03:28.409Z,4.20
2018-11-29T06:05:56.424Z,4.20
2018-11-29T06:08:24.428Z,4.30
2018-11-29T06:10:52.430Z,4.30
2018-11-29T06:13:20.398Z,4.20
2018-11-29T06:15:48.404Z,4.30
2018-11-29T06:18:16.439Z,4.20
2018-11-29T06:20:44.560Z,4.20
2018-11-29T06:23:12.523Z,4.30
2018-11-29T06:25:40.553Z,4.20
2018-11-29T06:28:08.566Z,4.30
2018-11-29T06:30:36.610Z,4.20
2018-11-29T06:33:04.603Z,4.20
2018-11-29T06:35:32.603Z,4.20
2018-11-29T06:38:00.627Z,4.20
2018-11-29T06:40:28.604Z,4.20
2018-11-29T06:42:56.665Z,4.20
2018-11-29T06:45:24.670Z,4.20
2018-11-29T06:47:52.854Z,4.20
2018-11-29T06:50:20.969Z,4.30
2018-11-29T06:52:50.112Z,4.20
2018-11-29T06:55:20.845Z,4.30
2018-11-29T06:57:48.822Z,4.30
2018-11-29T07:00:28.903Z,4.40
2018-11-29T07:02:56.950Z,4.30
2018-11-29T07:05:24.971Z,4.40
2018-11-29T07:07:52.986Z,4.30
2018-11-29T07:10:26.455Z,4.30
2018-11-29T07:12:54.478Z,4.40
2018-11-29T07:15:22.478Z,4.40
2018-11-29T07:17:50.645Z,4.40
2018-11-29T07:20:18.578Z,4.40
2018-11-29T07:22:46.814Z,4.40
2018-11-29T07:25:14.767Z,4.40
2018-11-29T07:27:42.791Z,4.50
2018-11-29T07:30:14.015Z,4.50
2018-11-29T07:32:41.995Z,4.50
2018-11-29T07:35:11.083Z,4.50
2018-11-29T07:37:39.280Z,4.50
2018-11-29T07:40:10.699Z,4.60
2018-11-29T07:42:38.779Z,4.60
2018-11-29T07:45:10.229Z,4.60
2018-11-29T07:47:38.227Z,4.70
2018-11-29T07:50:10.682Z,4.70
2018-11-29T07:52:38.715Z,4.60
2018-11-29T07:55:10.822Z,4.70
2018-11-29T07:57:38.849Z,4.80
2018-11-29T08:00:09.447Z,4.80
2018-11-29T08:02:37.426Z,4.70
2018-11-29T08:05:06.854Z,4.80
2018-11-29T08:07:34.833Z,4.80
2018-11-29T08:10:02.840Z,4.80
2018-11-29T08:12:30.887Z,4.80
2018-11-29T08:14:58.891Z,4.80
2018-11-29T08:17:26.895Z,4.90
2018-11-29T08:19:54.889Z,4.90
2018-11-29T08:22:23.050Z,5.00
2018-11-29T08:24:51.071Z,4.90
2018-11-29T08:27:19.019Z,4.90
2018-11-29T08:29:47.020Z,5.00
2018-11-29T08:32:15.013Z,5.00
2018-11-29T08:34:42.994Z,5.00
2018-11-29T08:37:11.012Z,5.10
2018-11-29T08:39:38.979Z,5.00
2018-11-29T08:42:06.978Z,4.90
2018-11-29T08:44:34.991Z,4.80
2018-11-29T08:47:03.072Z,4.90
2018-11-29T08:49:31.119Z,4.90
2018-11-29T08:51:59.085Z,4.90
2018-11-29T08:54:27.215Z,4.90
2018-11-29T08:56:55.190Z,4.90
2018-11-29T08:59:23.286Z,4.90
2018-11-29T09:01:51.338Z,4.90
2018-11-29T09:04:19.378Z,4.80
2018-11-29T09:06:47.409Z,4.80
2018-11-29T09:09:15.435Z,4.90
2018-11-29T09:11:43.535Z,4.90
2018-11-29T09:14:11.527Z,4.90
2018-11-29T09:16:39.515Z,4.90
2018-11-29T09:19:07.541Z,4.90
2018-11-29T09:21:35.506Z,4.90
2018-11-29T09:24:03.459Z,4.90
2018-11-29T09:26:31.427Z,5.00
2018-11-29T09:28:59.391Z,5.00
2018-11-29T09:31:27.502Z,5.00
2018-11-29T09:33:56.381Z,5.00
2018-11-29T09:36:25.057Z,5.00
2018-11-29T09:38:53.006Z,5.00
2018-11-29T09:41:21.002Z,5.00
2018-11-29T09:43:48.977Z,5.10
2018-11-29T09:46:16.934Z,5.00
2018-11-29T09:48:44.947Z,5.10
2018-11-29T09:51:12.950Z,5.00
2018-11-29T09:53:40.951Z,5.00
2018-11-29T09:56:08.933Z,5.10
2018-11-29T09:58:36.930Z,5.00
2018-11-29T10:01:05.338Z,5.10
2018-11-29T10:03:33.307Z,5.10
2018-11-29T10:06:01.310Z,4.90
2018-11-29T10:08:29.261Z,5.00
2018-11-29T10:10:57.339Z,5.00
2018-11-29T10:13:25.299Z,5.00
2018-11-29T10:15:53.295Z,5.00
2018-11-29T10:18:21.280Z,5.00
2018-11-29T10:20:49.289Z,4.90
2018-11-29T10:23:17.307Z,5.00
2018-11-29T10:25:46.135Z,5.00
2018-11-29T10:28:15.295Z,5.00
2018-11-29T10:30:51.257Z,5.00
2018-11-29T10:33:19.293Z,5.00
2018-11-29T10:35:47.318Z,5.00
2018-11-29T10:38:15.343Z,5.00
2018-11-29T10:40:43.425Z,5.00
2018-11-29T10:43:11.632Z,5.00
2018-11-29T10:45:39.614Z,5.00
2018-11-29T10:48:10.718Z,5.10
2018-11-29T10:50:38.763Z,5.10
2018-11-29T10:53:07.981Z,5.10
2018-11-29T10:55:35.935Z,5.10
2018-11-29T10:58:03.956Z,5.20
2018-11-29T11:00:34.453Z,5.20
2018-11-29T11:03:09.179Z,5.20
2018-11-29T11:05:37.405Z,5.20
2018-11-29T11:08:08.435Z,5.30
2018-11-29T11:10:34.902Z,5.30
2018-11-29T11:13:02.919Z,5.40
2018-11-29T11:15:30.870Z,5.40
2018-11-29T11:17:58.826Z,5.40
2018-11-29T11:20:26.886Z,5.50
2018-11-29T11:22:54.852Z,5.50
2018-11-29T11:25:22.934Z,5.50
2018-11-29T11:27:50.990Z,5.60
2018-11-29T11:30:20.200Z,5.60
2018-11-29T11:32:50.015Z,5.60
2018-11-29T11:35:18.019Z,5.70
2018-11-29T11:37:46.055Z,5.70
2018-11-29T11:40:14.952Z,5.70
2018-11-29T11:42:43.552Z,5.80
2018-11-29T11:45:16.600Z,5.80
2018-11-29T11:47:44.600Z,5.80
2018-11-29T11:50:19.308Z,5.80
2018-11-29T11:52:47.323Z,5.80
2018-11-29T11:55:18.898Z,5.80
2018-11-29T11:57:44.045Z,5.80
2018-11-29T12:00:14.510Z,5.90
2018-11-29T12:02:43.152Z,5.90
2018-11-29T12:05:11.355Z,6.00
2018-11-29T12:07:39.468Z,6.00
2018-11-29T12:10:09.847Z,6.00
2018-11-29T12:12:37.869Z,6.10
2018-11-29T12:15:09.587Z,6.00
2018-11-29T12:17:38.856Z,6.10
2018-11-29T12:20:10.107Z,6.20
2018-11-29T12:22:38.247Z,6.20
2018-11-29T12:25:07.795Z,6.20
2018-11-29T12:27:35.792Z,6.20
2018-11-29T12:30:05.357Z,6.20
2018-11-29T12:32:33.322Z,6.20
2018-11-29T12:35:01.366Z,6.30
2018-11-29T12:37:29.428Z,6.30
2018-11-29T12:39:57.498Z,6.30
2018-11-29T12:42:26.189Z,6.30
2018-11-29T12:44:54.179Z,6.30
2018-11-29T12:47:22.198Z,6.30
2018-11-29T12:49:50.191Z,6.40
2018-11-29T12:52:18.267Z,6.40
2018-11-29T12:54:46.267Z,6.50
2018-11-29T12:57:14.283Z,6.50
2018-11-29T12:59:42.331Z,6.50
2018-11-29T13:02:10.251Z,6.50
2018-11-29T13:04:38.260Z,6.60
2018-11-29T13:07:06.310Z,6.60
2018-11-29T13:09:34.312Z,6.60
2018-11-29T13:12:02.346Z,6.60
2018-11-29T13:14:30.281Z,6.60
2018-11-29T13:16:58.279Z,6.70
2018-11-29T13:19:26.285Z,6.80
2018-11-29T13:21:54.328Z,6.80
2018-11-29T13:24:22.336Z,6.90
2018-11-29T13:26:50.343Z,6.90
2018-11-29T13:29:18.336Z,7.00
2018-11-29T13:31:46.322Z,7.20
2018-11-29T13:34:14.315Z,7.10
2018-11-29T13:36:42.311Z,7.10
2018-11-29T13:39:10.532Z,7.10
2018-11-29T13:41:38.555Z,7.10
2018-11-29T13:44:06.564Z,7.00
2018-11-29T13:46:34.631Z,7.10
2018-11-29T13:49:02.605Z,7.00
2018-11-29T13:51:30.584Z,7.10
2018-11-29T13:53:58.603Z,7.10
2018-11-29T13:56:26.788Z,7.10
2018-11-29T13:58:54.767Z,7.10
2018-11-29T14:01:22.845Z,7.10
2018-11-29T14:03:50.858Z,7.10
2018-11-29T14:06:18.846Z,7.10
2018-11-29T14:08:46.839Z,7.10
2018-11-29T14:11:14.990Z,7.10
2018-11-29T14:13:42.939Z,7.10
2018-11-29T14:16:11.071Z,7.10
2018-11-29T14:18:39.059Z,7.10
2018-11-29T14:21:07.091Z,7.10
2018-11-29T14:23:35.106Z,7.10
2018-11-29T14:26:03.087Z,7.20
2018-11-29T14:28:31.164Z,7.20
2018-11-29T14:30:59.143Z,7.20
2018-11-29T14:33:27.263Z,7.20
2018-11-29T14:35:55.262Z,7.20
2018-11-29T14:38:23.227Z,7.10
2018-11-29T14:40:51.447Z,7.20
2018-11-29T14:43:19.447Z,7.20
2018-11-29T14:45:47.441Z,7.20
2018-11-29T14:48:15.458Z,7.20
2018-11-29T14:50:44.677Z,7.20
2018-11-29T14:53:12.641Z,7.30
2018-11-29T14:55:40.962Z,7.20
2018-11-29T14:58:11.230Z,7.20
2018-11-29T15:00:39.273Z,7.20
2018-11-29T15:03:08.808Z,7.20
2018-11-29T15:05:36.885Z,7.20
2018-11-29T15:08:05.800Z,7.20
2018-11-29T15:10:33.782Z,7.20
2018-11-29T15:13:01.855Z,7.20
2018-11-29T15:15:29.857Z,7.20
2018-11-29T15:17:57.804Z,7.30
2018-11-29T15:20:35.519Z,7.30
2018-11-29T15:23:03.636Z,7.30
2018-11-29T15:25:31.757Z,7.30
2018-11-29T15:27:59.700Z,7.30
2018-11-29T15:30:27.655Z,7.30
2018-11-29T15:32:55.672Z,7.30
2018-11-29T15:35:23.655Z,7.30
2018-11-29T15:37:52.773Z,7.40
2018-11-29T15:40:20.803Z,7.40
2018-11-29T15:42:48.816Z,7.50
2018-11-29T15:45:19.096Z,7.50
2018-11-29T15:47:47.167Z,7.50
2018-11-29T15:50:15.655Z,7.50
2018-11-29T15:52:43.646Z,7.40
2018-11-29T15:55:15.227Z,7.50
2018-11-29T15:57:43.692Z,7.40
2018-11-29T16:00:15.819Z,7.40
2018-11-29T16:02:44.610Z,7.50
2018-11-29T16:05:12.655Z,7.40
2018-11-29T16:07:40.774Z,7.50
2018-11-29T16:10:09.994Z,7.50
2018-11-29T16:12:38.214Z,7.50
2018-11-29T16:15:09.178Z,7.40
2018-11-29T16:17:37.162Z,7.40
2018-11-29T16:20:08.808Z,7.40
2018-11-29T16:22:36.779Z,7.40
2018-11-29T16:25:06.957Z,7.40
2018-11-29T16:27:35.264Z,7.50
2018-11-29T16:30:03.530Z,7.40
2018-11-29T16:32:31.526Z,7.30
2018-11-29T16:34:59.528Z,7.40
2018-11-29T16:37:27.765Z,7.40
2018-11-29T16:39:55.821Z,7.40
2018-11-29T16:42:23.975Z,7.40
2018-11-29T16:44:52.007Z,7.40
2018-11-29T16:47:19.991Z,7.40
2018-11-29T16:49:47.976Z,7.40
2018-11-29T16:52:15.920Z,7.40
2018-11-29T16:54:43.884Z,7.40
2018-11-29T16:57:11.886Z,7.40
2018-11-29T16:59:39.850Z,7.50
2018-11-29T17:02:07.831Z,7.50
2018-11-29T17:04:35.814Z,7.50
2018-11-29T17:07:03.855Z,7.40
2018-11-29T17:09:31.919Z,7.40
2018-11-29T17:12:00.299Z,7.50
2018-11-29T17:14:27.887Z,7.50
2018-11-29T17:16:55.860Z,7.50
2018-11-29T17:19:23.840Z,7.50
2018-11-29T17:21:51.843Z,7.50
2018-11-29T17:24:19.851Z,7.50
2018-11-29T17:26:47.812Z,7.50
2018-11-29T17:29:15.770Z,7.50
2018-11-29T17:31:43.851Z,7.50
2018-11-29T17:34:12.058Z,7.50
2018-11-29T17:36:40.400Z,7.50
2018-11-29T17:39:09.303Z,7.50
2018-11-29T17:41:37.317Z,7.40
2018-11-29T17:44:05.859Z,7.40
2018-11-29T17:46:33.883Z,7.40
2018-11-29T17:49:01.886Z,7.30
2018-11-29T17:51:29.858Z,7.30
2018-11-29T17:53:58.699Z,7.30
2018-11-29T17:56:26.746Z,7.30
2018-11-29T17:58:54.737Z,7.40
2018-11-29T18:01:22.698Z,7.40
2018-11-29T18:03:50.921Z,7.40
2018-11-29T18:06:18.859Z,7.40
2018-11-29T18:08:46.882Z,7.40
2018-11-29T18:11:14.839Z,7.30
2018-11-29T18:13:44.083Z,7.40
2018-11-29T18:16:12.032Z,7.30
2018-11-29T18:18:40.111Z,7.30
2018-11-29T18:21:08.171Z,7.30
2018-11-29T18:23:36.231Z,7.30
2018-11-29T18:26:04.235Z,7.30
2018-11-29T18:28:32.304Z,7.30
2018-11-29T18:31:00.251Z,7.30
2018-11-29T18:33:28.212Z,7.30
2018-11-29T18:35:56.170Z,7.30
2018-11-29T18:38:24.172Z,7.30
2018-11-29T18:40:52.192Z,7.30
2018-11-29T18:43:20.198Z,7.30
2018-11-29T18:45:48.219Z,7.30
2018-11-29T18:48:16.200Z,7.30
2018-11-29T18:50:44.198Z,7.30
2018-11-29T18:53:12.167Z,7.30
2018-11-29T18:55:40.163Z,7.40
2018-11-29T18:58:08.300Z,7.40
2018-11-29T19:00:37.013Z,7.30
2018-11-29T19:03:05.663Z,7.40
2018-11-29T19:05:33.749Z,7.40
2018-11-29T19:08:01.762Z,7.40
2018-11-29T19:10:29.755Z,7.30
2018-11-29T19:13:06.019Z,7.40
2018-11-29T19:15:34.058Z,7.40
2018-11-29T19:18:02.078Z,7.50
2018-11-29T19:20:30.166Z,7.40
2018-11-29T19:22:58.123Z,7.50
2018-11-29T19:25:26.173Z,7.50
2018-11-29T19:27:54.127Z,7.50
2018-11-29T19:30:24.410Z,7.50
2018-11-29T19:33:06.022Z,7.50
2018-11-29T19:35:34.022Z,7.40
2018-11-29T19:38:01.994Z,7.40
2018-11-29T19:40:30.074Z,7.50
2018-11-29T19:42:58.728Z,7.50
2018-11-29T19:45:26.723Z,7.40
2018-11-29T19:47:54.663Z,7.50
2018-11-29T19:50:22.655Z,7.50
2018-11-29T19:52:53.895Z,7.50
2018-11-29T19:55:23.323Z,7.50
2018-11-29T19:57:51.366Z,7.60
2018-11-29T20:00:20.379Z,7.60
2018-11-29T20:02:49.188Z,7.70
2018-11-29T20:05:24.082Z,7.70
2018-11-29T20:07:52.154Z,7.70
2018-11-29T20:10:20.223Z,7.60
2018-11-29T20:12:56.082Z,7.50
2018-11-29T20:15:24.083Z,7.50
2018-11-29T20:17:52.054Z,7.50
2018-11-29T20:20:20.015Z,7.50
2018-11-29T20:22:47.998Z,7.40
2018-11-29T20:25:17.173Z,7.30
2018-11-29T20:27:45.214Z,7.40
2018-11-29T20:30:17.739Z,7.30
2018-11-29T20:32:46.374Z,7.30
2018-11-29T20:35:14.310Z,7.30
2018-11-29T20:37:42.300Z,7.30
2018-11-29T20:40:15.039Z,7.30
2018-11-29T20:42:43.161Z,7.30
2018-11-29T20:45:16.370Z,7.30
2018-11-29T20:47:44.366Z,7.40
2018-11-29T20:50:14.806Z,7.30
2018-11-29T20:52:42.163Z,7.30
2018-11-29T20:55:12.362Z,7.30
2018-11-29T20:57:40.402Z,7.30
2018-11-29T21:00:14.115Z,7.30
2018-11-29T21:02:42.292Z,7.30
2018-11-29T21:05:12.472Z,7.30
2018-11-29T21:07:41.104Z,7.30
2018-11-29T21:10:13.784Z,7.30
2018-11-29T21:12:41.967Z,7.30
2018-11-29T21:15:09.965Z,7.20
2018-11-29T21:17:37.971Z,7.30
2018-11-29T21:20:08.711Z,7.20
2018-11-29T21:22:36.684Z,7.30
2018-11-29T21:25:06.925Z,7.30
2018-11-29T21:27:34.887Z,7.30
2018-11-29T21:30:03.080Z,7.30
2018-11-29T21:32:31.050Z,7.30
2018-11-29T21:34:59.078Z,7.30
2018-11-29T21:37:27.039Z,7.30
2018-11-29T21:39:55.019Z,7.30
2018-11-29T21:42:22.994Z,7.20
2018-11-29T21:44:50.967Z,7.20
2018-11-29T21:47:18.922Z,7.20
2018-11-29T21:49:46.993Z,7.30
2018-11-29T21:52:14.962Z,7.20
2018-11-29T21:54:42.994Z,7.30
2018-11-29T21:57:11.063Z,7.20
2018-11-29T21:59:39.009Z,7.20
2018-11-29T22:02:07.006Z,7.20
2018-11-29T22:04:34.984Z,7.20
2018-11-29T22:07:02.949Z,7.20
2018-11-29T22:09:30.963Z,7.10
2018-11-29T22:11:58.979Z,7.10
2018-11-29T22:14:26.982Z,7.10
2018-11-29T22:16:54.956Z,7.10
2018-11-29T22:19:23.016Z,7.10
2018-11-29T22:21:51.045Z,7.10
2018-11-29T22:24:19.065Z,7.10
2018-11-29T22:26:47.001Z,7.10
2018-11-29T22:29:14.975Z,7.10
2018-11-29T22:31:43.067Z,7.00
2018-11-29T22:34:11.112Z,7.00
2018-11-29T22:36:39.062Z,7.10
2018-11-29T22:39:08.924Z,7.00
2018-11-29T22:41:37.003Z,7.10
2018-11-29T22:44:05.375Z,7.10
2018-11-29T22:46:33.319Z,7.10
2018-11-29T22:49:01.307Z,7.00
2018-11-29T22:51:29.283Z,7.00
2018-11-29T22:53:57.351Z,7.00
2018-11-29T22:56:25.423Z,7.00
2018-11-29T22:58:53.385Z,7.20
2018-11-29T23:01:26.906Z,7.30
2018-11-29T23:03:55.440Z,7.20
2018-11-29T23:06:23.432Z,7.20
2018-11-29T23:08:51.485Z,7.10
2018-11-29T23:11:19.465Z,7.10
2018-11-29T23:13:47.456Z,7.20
2018-11-29T23:16:15.390Z,7.30
2018-11-29T23:18:43.349Z,7.30
2018-11-29T23:21:11.347Z,7.30
2018-11-29T23:23:39.347Z,7.40
2018-11-29T23:26:07.390Z,7.40
2018-11-29T23:28:35.485Z,7.40
2018-11-29T23:31:03.465Z,7.40
2018-11-29T23:33:31.417Z,7.50
2018-11-29T23:35:59.387Z,7.50
2018-11-29T23:38:27.343Z,7.50
2018-11-29T23:40:55.400Z,7.50
2018-11-29T23:43:23.344Z,7.50
2018-11-29T23:45:51.330Z,7.50
2018-11-29T23:48:19.303Z,7.50
2018-11-29T23:50:47.270Z,7.50
2018-11-29T23:53:15.314Z,7.50
2018-11-29T23:55:43.312Z,7.50
2018-11-29T23:58:11.319Z,7.40
